createdAt,value
2018-02-19T00:01:33.317Z,68.87
2018-02-19T00:04:01.758Z,69.82
2018-02-19T00:06:30.259Z,69.79
2018-02-19T00:08:58.697Z,69.11
2018-02-19T00:11:27.127Z,69.58
2018-02-19T00:13:55.595Z,69.34
2018-02-19T00:16:24.029Z,69.44
2018-02-19T00:18:52.477Z,68.95
2018-02-19T00:21:20.966Z,69.06
2018-02-19T00:23:49.425Z,69.18
2018-02-19T00:26:17.875Z,70.22
2018-02-19T00:28:46.378Z,69.03
2018-02-19T00:31:14.829Z,69.45
2018-02-19T00:33:43.292Z,69.69
2018-02-19T00:36:11.769Z,69.44
2018-02-19T00:38:40.222Z,69.22
2018-02-19T00:41:08.662Z,69.55
2018-02-19T00:43:37.140Z,69.60
2018-02-19T00:46:05.582Z,70.16
2018-02-19T00:48:34.040Z,69.55
2018-02-19T00:51:02.515Z,70.10
2018-02-19T00:53:30.973Z,70.08
2018-02-19T00:55:59.404Z,69.39
2018-02-19T00:58:27.869Z,69.42
2018-02-19T01:00:56.311Z,69.53
2018-02-19T01:03:24.760Z,69.46
2018-02-19T01:05:53.260Z,70.01
2018-02-19T01:08:21.706Z,69.43
2018-02-19T01:10:50.144Z,68.75
2018-02-19T01:13:18.620Z,70.63
2018-02-19T01:15:47.045Z,70.01
2018-02-19T01:18:15.485Z,70.36
2018-02-19T01:20:43.964Z,70.27
2018-02-19T01:23:12.408Z,69.70
2018-02-19T01:25:40.859Z,70.66
2018-02-19T01:28:09.563Z,70.72
2018-02-19T01:30:37.997Z,70.47
2018-02-19T01:33:06.441Z,69.82
2018-02-19T01:35:34.934Z,70.60
2018-02-19T01:38:03.378Z,70.38
2018-02-19T01:40:31.824Z,70.65
2018-02-19T01:43:00.309Z,70.23
2018-02-19T01:45:28.753Z,70.56
2018-02-19T01:47:57.203Z,69.95
2018-02-19T01:50:25.691Z,70.49
2018-02-19T01:52:54.132Z,70.60
2018-02-19T01:55:22.569Z,70.37
2018-02-19T01:57:51.063Z,70.96
2018-02-19T02:00:19.749Z,70.23
2018-02-19T02:02:48.186Z,71.17
2018-02-19T02:05:16.677Z,70.76
2018-02-19T02:07:45.135Z,70.98
2018-02-19T02:10:13.581Z,71.76
2018-02-19T02:12:42.051Z,71.25
2018-02-19T02:15:10.501Z,70.88
2018-02-19T02:17:38.948Z,71.01
2018-02-19T02:20:07.431Z,70.37
2018-02-19T02:22:35.868Z,70.91
2018-02-19T02:25:04.316Z,70.59
2018-02-19T02:27:32.786Z,70.43
2018-02-19T02:30:01.233Z,70.95
2018-02-19T02:32:29.695Z,70.99
2018-02-19T02:34:58.168Z,70.73
2018-02-19T02:37:26.607Z,70.92
2018-02-19T02:39:55.038Z,70.67
2018-02-19T02:42:23.521Z,70.54
2018-02-19T02:44:51.967Z,70.52
2018-02-19T02:47:20.417Z,70.55
2018-02-19T02:49:48.928Z,70.47
2018-02-19T02:52:17.366Z,70.71
2018-02-19T02:54:45.829Z,70.68
2018-02-19T02:57:14.300Z,70.54
2018-02-19T02:59:47.586Z,70.77
2018-02-19T03:02:16.080Z,71.06
2018-02-19T03:04:44.548Z,70.96
2018-02-19T03:07:12.982Z,71.05
2018-02-19T03:09:41.506Z,71.14
2018-02-19T03:12:09.934Z,71.57
2018-02-19T03:14:38.362Z,71.45
2018-02-19T03:17:06.849Z,71.69
2018-02-19T03:19:35.317Z,71.69
2018-02-19T03:22:03.743Z,71.62
2018-02-19T03:24:32.241Z,71.68
2018-02-19T03:27:00.681Z,71.49
2018-02-19T03:29:29.122Z,71.49
2018-02-19T03:31:57.611Z,71.57
2018-02-19T03:34:26.064Z,71.55
2018-02-19T03:36:54.503Z,71.45
2018-02-19T03:39:22.981Z,71.66
2018-02-19T03:41:51.419Z,71.68
2018-02-19T03:44:19.872Z,71.56
2018-02-19T03:46:48.363Z,71.54
2018-02-19T03:49:16.812Z,70.92
2018-02-19T03:51:45.250Z,71.27
2018-02-19T03:54:13.733Z,70.83
2018-02-19T03:56:42.173Z,70.28
2018-02-19T03:59:10.632Z,70.96
2018-02-19T04:01:39.098Z,71.08
2018-02-19T04:04:07.553Z,71.18
2018-02-19T04:06:35.984Z,71.20
2018-02-19T04:09:04.525Z,71.24
2018-02-19T04:11:32.978Z,71.30
2018-02-19T04:14:01.416Z,71.19
2018-02-19T04:16:30.111Z,71.21
2018-02-19T04:18:58.547Z,71.39
2018-02-19T04:21:26.993Z,72.21
2018-02-19T04:23:55.477Z,72.12
2018-02-19T04:26:23.928Z,72.04
2018-02-19T04:28:52.374Z,71.58
2018-02-19T04:31:20.864Z,72.33
2018-02-19T04:33:49.297Z,72.31
2018-02-19T04:36:17.736Z,72.05
2018-02-19T04:38:46.233Z,72.65
2018-02-19T04:41:14.666Z,71.88
2018-02-19T04:43:43.140Z,72.39
2018-02-19T04:46:12.473Z,72.36
2018-02-19T04:48:40.921Z,72.34
2018-02-19T04:51:09.371Z,72.29
2018-02-19T04:53:37.861Z,72.17
2018-02-19T04:56:06.302Z,72.10
2018-02-19T04:58:34.756Z,72.07
2018-02-19T05:01:03.278Z,72.03
2018-02-19T05:03:31.712Z,72.13
2018-02-19T05:06:00.161Z,72.22
2018-02-19T05:08:28.630Z,72.14
2018-02-19T05:10:57.061Z,72.36
2018-02-19T05:13:25.516Z,72.22
2018-02-19T05:15:54.028Z,72.12
2018-02-19T05:18:22.473Z,72.12
2018-02-19T05:20:50.922Z,72.20
2018-02-19T05:23:19.400Z,72.13
2018-02-19T05:25:47.834Z,72.27
2018-02-19T05:28:16.296Z,72.48
2018-02-19T05:30:44.770Z,72.52
2018-02-19T05:33:13.209Z,72.50
2018-02-19T05:35:41.657Z,72.55
2018-02-19T05:38:10.144Z,72.66
2018-02-19T05:40:38.596Z,72.65
2018-02-19T05:43:07.039Z,72.77
2018-02-19T05:45:35.531Z,72.17
2018-02-19T05:48:04.006Z,72.19
2018-02-19T05:50:32.453Z,72.28
2018-02-19T05:53:00.938Z,72.56
2018-02-19T05:55:29.391Z,72.47
2018-02-19T05:57:57.846Z,72.54
2018-02-19T06:00:26.305Z,72.47
2018-02-19T06:02:54.728Z,72.57
2018-02-19T06:05:23.174Z,72.39
2018-02-19T06:07:51.638Z,72.59
2018-02-19T06:10:20.133Z,72.65
2018-02-19T06:12:48.561Z,72.74
2018-02-19T06:15:17.027Z,72.84
2018-02-19T06:17:45.480Z,73.07
2018-02-19T06:20:13.899Z,73.00
2018-02-19T06:22:42.393Z,73.12
2018-02-19T06:25:10.822Z,73.02
2018-02-19T06:27:39.274Z,72.95
2018-02-19T06:30:07.760Z,73.14
2018-02-19T06:32:36.211Z,73.10
2018-02-19T06:35:04.669Z,73.15
2018-02-19T06:37:33.130Z,73.00
2018-02-19T06:40:01.576Z,73.17
2018-02-19T06:42:29.995Z,73.07
2018-02-19T06:44:58.463Z,73.20
2018-02-19T06:47:26.898Z,73.21
2018-02-19T06:49:55.346Z,73.05
2018-02-19T06:52:23.833Z,73.01
2018-02-19T06:54:52.256Z,73.05
2018-02-19T06:57:20.701Z,73.42
2018-02-19T06:59:49.181Z,73.34
2018-02-19T07:02:17.620Z,73.27
2018-02-19T07:04:46.053Z,73.35
2018-02-19T07:07:14.521Z,73.11
2018-02-19T07:09:42.972Z,73.26
2018-02-19T07:12:11.411Z,72.55
2018-02-19T07:14:39.873Z,72.63
2018-02-19T07:17:08.293Z,73.01
2018-02-19T07:19:36.765Z,73.00
2018-02-19T07:22:05.240Z,72.88
2018-02-19T07:24:33.670Z,73.16
2018-02-19T07:27:02.100Z,72.75
2018-02-19T07:29:30.588Z,72.16
2018-02-19T07:31:59.016Z,72.74
2018-02-19T07:34:27.448Z,72.70
2018-02-19T07:36:55.941Z,72.53
2018-02-19T07:39:24.362Z,72.70
2018-02-19T07:41:52.788Z,71.99
2018-02-19T07:44:21.309Z,72.33
2018-02-19T07:46:49.759Z,72.23
2018-02-19T07:49:18.208Z,72.18
2018-02-19T07:51:46.675Z,72.89
2018-02-19T07:54:15.098Z,72.88
2018-02-19T07:56:43.523Z,72.48
2018-02-19T07:59:12.006Z,72.16
2018-02-19T08:01:40.441Z,72.87
2018-02-19T08:04:08.891Z,73.25
2018-02-19T08:06:37.357Z,72.84
2018-02-19T08:09:05.821Z,72.48
2018-02-19T08:11:34.253Z,72.53
2018-02-19T08:14:02.733Z,71.77
2018-02-19T08:16:31.173Z,71.17
2018-02-19T08:18:59.606Z,71.36
2018-02-19T08:21:28.083Z,70.95
2018-02-19T08:23:56.601Z,70.96
2018-02-19T08:26:25.041Z,71.22
2018-02-19T08:28:53.515Z,71.32
2018-02-19T08:31:21.962Z,71.18
2018-02-19T08:33:50.421Z,71.09
2018-02-19T08:36:19.133Z,71.05
2018-02-19T08:38:47.573Z,70.87
2018-02-19T08:41:16.037Z,70.28
2018-02-19T08:43:44.527Z,70.83
2018-02-19T08:46:12.970Z,70.12
2018-02-19T08:48:41.432Z,70.61
2018-02-19T08:51:09.950Z,69.84
2018-02-19T08:53:38.398Z,70.18
2018-02-19T08:56:06.831Z,70.39
2018-02-19T08:58:35.306Z,70.46
2018-02-19T09:01:03.770Z,69.78
2018-02-19T09:03:32.197Z,69.19
2018-02-19T09:06:00.675Z,69.21
2018-02-19T09:08:29.105Z,68.14
2018-02-19T09:10:57.538Z,69.07
2018-02-19T09:13:25.998Z,69.46
2018-02-19T09:15:54.423Z,69.56
2018-02-19T09:18:23.186Z,68.50
2018-02-19T09:20:51.694Z,68.91
2018-02-19T09:23:20.129Z,68.87
2018-02-19T09:25:49.370Z,68.82
2018-02-19T09:28:17.870Z,68.89
2018-02-19T09:30:46.328Z,68.24
2018-02-19T09:33:14.769Z,67.49
2018-02-19T09:35:43.249Z,67.53
2018-02-19T09:38:11.735Z,68.01
2018-02-19T09:40:40.168Z,67.68
2018-02-19T09:43:08.640Z,67.76
2018-02-19T09:45:37.082Z,67.66
2018-02-19T09:48:05.521Z,67.66
2018-02-19T09:50:34.005Z,67.49
2018-02-19T09:53:02.486Z,67.10
2018-02-19T09:55:30.907Z,67.40
2018-02-19T09:57:59.390Z,67.05
2018-02-19T10:00:27.813Z,66.76
2018-02-19T10:02:56.247Z,67.16
2018-02-19T10:05:24.738Z,67.24
2018-02-19T10:07:53.186Z,66.16
2018-02-19T10:10:21.606Z,66.89
2018-02-19T10:12:50.091Z,67.20
2018-02-19T10:15:18.523Z,67.09
2018-02-19T10:17:46.964Z,67.06
2018-02-19T10:20:15.451Z,66.20
2018-02-19T10:22:43.881Z,66.34
2018-02-19T10:25:12.320Z,66.17
2018-02-19T10:27:40.799Z,65.68
2018-02-19T10:30:09.249Z,66.63
2018-02-19T10:32:37.698Z,65.75
2018-02-19T10:35:06.185Z,64.05
2018-02-19T10:37:34.605Z,65.02
2018-02-19T10:40:03.081Z,65.20
2018-02-19T10:42:31.565Z,66.11
2018-02-19T10:45:00.022Z,66.29
2018-02-19T10:47:28.463Z,66.16
2018-02-19T10:49:56.922Z,66.79
2018-02-19T10:52:25.377Z,66.89
2018-02-19T10:54:53.836Z,66.93
2018-02-19T10:57:22.339Z,67.05
2018-02-19T10:59:50.813Z,67.25
2018-02-19T11:02:19.264Z,67.35
2018-02-19T11:04:47.757Z,66.67
2018-02-19T11:07:16.200Z,67.09
2018-02-19T11:09:44.640Z,67.04
2018-02-19T11:12:13.110Z,67.10
2018-02-19T11:14:41.534Z,66.70
2018-02-19T11:17:09.974Z,67.01
2018-02-19T11:19:38.486Z,67.51
2018-02-19T11:22:06.939Z,67.29
2018-02-19T11:24:35.396Z,66.36
2018-02-19T11:27:03.910Z,66.97
2018-02-19T11:29:32.346Z,66.68
2018-02-19T11:32:00.766Z,66.56
2018-02-19T11:34:29.248Z,65.59
2018-02-19T11:36:57.691Z,64.87
2018-02-19T11:39:26.145Z,64.81
2018-02-19T11:41:54.649Z,65.71
2018-02-19T11:44:23.080Z,64.09
2018-02-19T11:46:51.564Z,65.00
2018-02-19T11:49:20.056Z,63.58
2018-02-19T11:51:48.532Z,65.28
2018-02-19T11:54:16.990Z,65.77
2018-02-19T11:56:45.471Z,65.95
2018-02-19T11:59:13.912Z,66.19
2018-02-19T12:01:42.341Z,65.42
2018-02-19T12:04:10.815Z,65.51
2018-02-19T12:06:39.241Z,66.03
2018-02-19T12:09:07.691Z,65.30
2018-02-19T12:11:36.177Z,65.16
2018-02-19T12:14:04.628Z,65.23
2018-02-19T12:16:33.090Z,64.03
2018-02-19T12:19:01.558Z,64.94
2018-02-19T12:21:29.993Z,64.99
2018-02-19T12:23:58.440Z,63.71
2018-02-19T12:26:26.906Z,62.33
2018-02-19T12:28:55.348Z,63.80
2018-02-19T12:31:23.788Z,62.97
2018-02-19T12:33:52.287Z,62.62
2018-02-19T12:36:20.757Z,61.93
2018-02-19T12:38:49.214Z,62.53
2018-02-19T12:41:17.701Z,62.11
2018-02-19T12:43:46.137Z,62.33
2018-02-19T12:46:14.596Z,61.61
2018-02-19T12:48:43.090Z,62.74
2018-02-19T12:51:11.559Z,61.57
2018-02-19T12:53:40.012Z,60.77
2018-02-19T12:56:08.621Z,61.19
2018-02-19T12:58:37.051Z,61.49
2018-02-19T13:01:05.494Z,61.79
2018-02-19T13:03:33.966Z,61.29
2018-02-19T13:06:02.391Z,61.01
2018-02-19T13:08:30.822Z,62.08
2018-02-19T13:10:59.342Z,61.94
2018-02-19T13:13:27.776Z,59.72
2018-02-19T13:15:56.241Z,60.43
2018-02-19T13:18:24.741Z,61.59
2018-02-19T13:20:53.200Z,61.68
2018-02-19T13:23:21.654Z,60.99
2018-02-19T13:25:50.141Z,60.64
2018-02-19T13:28:18.588Z,60.07
2018-02-19T13:30:47.031Z,60.22
2018-02-19T13:33:15.517Z,59.20
2018-02-19T13:35:43.968Z,60.32
2018-02-19T13:38:12.416Z,61.14
2018-02-19T13:40:40.874Z,60.79
2018-02-19T13:43:09.317Z,59.89
2018-02-19T13:45:37.746Z,60.92
2018-02-19T13:48:06.212Z,61.06
2018-02-19T13:50:34.654Z,60.34
2018-02-19T13:53:03.104Z,60.92
2018-02-19T13:55:31.597Z,60.79
2018-02-19T13:58:00.041Z,61.45
2018-02-19T14:00:28.504Z,60.79
2018-02-19T14:02:57.013Z,61.03
2018-02-19T14:05:25.458Z,61.81
2018-02-19T14:07:53.915Z,60.04
2018-02-19T14:10:22.386Z,60.24
2018-02-19T14:12:50.828Z,59.79
2018-02-19T14:15:19.277Z,60.46
2018-02-19T14:17:47.758Z,61.36
2018-02-19T14:20:16.201Z,60.71
2018-02-19T14:22:44.667Z,59.74
2018-02-19T14:25:13.154Z,61.02
2018-02-19T14:27:41.610Z,60.84
2018-02-19T14:30:10.061Z,60.78
2018-02-19T14:32:38.566Z,60.77
2018-02-19T14:35:06.995Z,62.30
2018-02-19T14:37:35.441Z,61.37
2018-02-19T14:40:03.952Z,60.43
2018-02-19T14:42:32.414Z,61.51
2018-02-19T14:45:00.840Z,60.50
2018-02-19T14:47:29.316Z,60.68
2018-02-19T14:49:57.757Z,61.49
2018-02-19T14:52:26.197Z,57.82
2018-02-19T14:54:54.679Z,58.44
2018-02-19T14:57:23.121Z,59.70
2018-02-19T14:59:51.574Z,57.10
2018-02-19T15:02:20.052Z,56.02
2018-02-19T15:04:48.499Z,55.73
2018-02-19T15:07:16.922Z,57.38
2018-02-19T15:09:45.416Z,55.05
2018-02-19T15:12:13.850Z,55.51
2018-02-19T15:14:42.279Z,56.68
2018-02-19T15:17:10.755Z,54.61
2018-02-19T15:19:39.178Z,55.58
2018-02-19T15:22:07.602Z,55.07
2018-02-19T15:24:36.081Z,56.05
2018-02-19T15:27:04.532Z,56.38
2018-02-19T15:29:32.974Z,55.75
2018-02-19T15:32:01.488Z,54.61
2018-02-19T15:34:29.920Z,54.61
2018-02-19T15:36:58.382Z,55.15
2018-02-19T15:39:26.841Z,55.99
2018-02-19T15:41:55.275Z,57.53
2018-02-19T15:44:23.715Z,54.98
2018-02-19T15:46:52.226Z,56.80
2018-02-19T15:49:20.689Z,57.55
2018-02-19T15:51:49.139Z,56.25
2018-02-19T15:54:17.627Z,56.53
2018-02-19T15:56:46.057Z,56.72
2018-02-19T15:59:14.497Z,57.72
2018-02-19T16:01:42.992Z,58.72
2018-02-19T16:04:11.465Z,58.63
2018-02-19T16:06:39.932Z,59.37
2018-02-19T16:09:08.406Z,60.04
2018-02-19T16:11:36.845Z,57.87
2018-02-19T16:14:05.266Z,58.47
2018-02-19T16:16:33.731Z,59.16
2018-02-19T16:19:02.167Z,58.47
2018-02-19T16:21:30.587Z,58.61
2018-02-19T16:23:59.062Z,60.25
2018-02-19T16:26:27.514Z,59.49
2018-02-19T16:28:55.941Z,59.17
2018-02-19T16:31:24.442Z,58.99
2018-02-19T16:33:52.889Z,60.08
2018-02-19T16:36:21.337Z,59.46
2018-02-19T16:38:49.846Z,59.53
2018-02-19T16:41:18.279Z,59.64
2018-02-19T16:43:46.706Z,59.38
2018-02-19T16:46:15.198Z,59.58
2018-02-19T16:48:43.629Z,60.40
2018-02-19T16:51:12.055Z,60.70
2018-02-19T16:53:40.548Z,60.97
2018-02-19T16:56:09.006Z,61.17
2018-02-19T16:58:37.439Z,61.39
2018-02-19T17:01:06.030Z,61.55
2018-02-19T17:03:34.485Z,61.17
2018-02-19T17:06:02.937Z,60.90
2018-02-19T17:08:31.414Z,61.14
2018-02-19T17:10:59.836Z,61.21
2018-02-19T17:13:28.280Z,61.24
2018-02-19T17:15:56.762Z,61.29
2018-02-19T17:18:25.254Z,61.40
2018-02-19T17:20:53.705Z,61.61
2018-02-19T17:23:22.209Z,62.27
2018-02-19T17:25:50.642Z,62.65
2018-02-19T17:28:19.077Z,62.44
2018-02-19T17:30:47.560Z,62.46
2018-02-19T17:33:16.012Z,62.71
2018-02-19T17:36:00.202Z,63.13
2018-02-19T17:38:28.690Z,63.16
2018-02-19T17:40:57.131Z,63.00
2018-02-19T17:43:25.640Z,62.96
2018-02-19T17:45:54.103Z,63.62
2018-02-19T17:48:23.477Z,63.76
2018-02-19T17:50:51.960Z,64.23
2018-02-19T17:53:20.403Z,63.95
2018-02-19T17:55:48.849Z,64.11
2018-02-19T17:58:17.414Z,63.93
2018-02-19T18:00:45.874Z,64.10
2018-02-19T18:03:14.337Z,63.72
2018-02-19T18:05:42.892Z,63.91
2018-02-19T18:08:11.350Z,64.16
2018-02-19T18:10:39.779Z,64.01
2018-02-19T18:13:08.326Z,64.32
2018-02-19T18:15:36.786Z,64.43
2018-02-19T18:18:05.290Z,64.01
2018-02-19T18:20:33.764Z,64.01
2018-02-19T18:23:02.193Z,64.26
2018-02-19T18:25:30.615Z,64.53
2018-02-19T18:27:59.109Z,64.85
2018-02-19T18:30:27.548Z,65.37
2018-02-19T18:32:56.011Z,65.67
2018-02-19T18:35:24.509Z,65.75
2018-02-19T18:37:52.950Z,65.99
2018-02-19T18:40:21.366Z,66.18
2018-02-19T18:42:49.850Z,66.26
2018-02-19T18:45:18.300Z,66.71
2018-02-19T18:47:46.732Z,66.90
2018-02-19T18:50:15.207Z,66.89
2018-02-19T18:52:43.652Z,66.87
2018-02-19T18:55:12.103Z,66.97
2018-02-19T18:57:40.614Z,66.99
2018-02-19T19:00:09.078Z,66.81
2018-02-19T19:02:37.533Z,66.73
2018-02-19T19:05:06.011Z,66.62
2018-02-19T19:07:46.357Z,66.89
2018-02-19T19:10:26.559Z,66.81
2018-02-19T19:12:55.020Z,66.82
2018-02-19T19:15:23.519Z,67.26
2018-02-19T19:17:52.028Z,67.42
2018-02-19T19:20:20.489Z,67.39
2018-02-19T19:22:48.956Z,67.46
2018-02-19T19:25:17.497Z,67.44
2018-02-19T19:27:45.994Z,67.59
2018-02-19T19:30:15.210Z,67.82
2018-02-19T19:32:43.703Z,67.68
2018-02-19T19:35:12.161Z,68.17
2018-02-19T19:37:40.656Z,68.29
2018-02-19T19:40:09.159Z,68.21
2018-02-19T19:42:37.614Z,67.85
2018-02-19T19:45:06.103Z,68.02
2018-02-19T19:47:34.603Z,68.11
2018-02-19T19:50:03.070Z,68.29
2018-02-19T19:52:31.522Z,68.36
2018-02-19T19:55:00.226Z,68.40
2018-02-19T19:57:28.657Z,68.60
2018-02-19T19:59:57.344Z,68.67
2018-02-19T20:02:25.850Z,68.47
2018-02-19T20:04:54.310Z,68.53
2018-02-19T20:07:22.766Z,68.45
2018-02-19T20:09:51.249Z,68.65
2018-02-19T20:12:19.697Z,68.67
2018-02-19T20:14:48.151Z,69.00
2018-02-19T20:20:10.707Z,69.20
2018-02-19T20:22:39.160Z,69.59
2018-02-19T20:25:07.620Z,69.66
2018-02-19T20:27:36.112Z,69.82
2018-02-19T20:30:04.581Z,69.56
2018-02-19T20:32:33.010Z,69.46
2018-02-19T20:35:01.529Z,69.19
2018-02-19T20:37:30.000Z,69.45
2018-02-19T20:39:58.475Z,69.49
2018-02-19T20:42:27.004Z,69.53
2018-02-19T20:44:55.474Z,69.63
2018-02-19T20:47:23.919Z,69.52
2018-02-19T20:49:52.422Z,69.30
2018-02-19T20:52:20.860Z,69.53
2018-02-19T20:54:49.284Z,69.39
2018-02-19T20:57:17.765Z,69.56
2018-02-19T20:59:46.198Z,69.58
2018-02-19T21:02:14.634Z,69.83
2018-02-19T21:04:43.147Z,69.88
2018-02-19T21:07:11.591Z,70.28
2018-02-19T21:09:40.041Z,70.19
2018-02-19T21:12:08.528Z,70.58
2018-02-19T21:14:37.254Z,70.75
2018-02-19T21:17:05.682Z,70.97
2018-02-19T21:19:34.156Z,70.83
2018-02-19T21:22:02.595Z,71.23
2018-02-19T21:24:31.038Z,71.08
2018-02-19T21:26:59.604Z,71.12
2018-02-19T21:29:28.047Z,71.08
2018-02-19T21:31:56.487Z,71.06
2018-02-19T21:34:25.003Z,71.23
2018-02-19T21:36:53.434Z,71.30
2018-02-19T21:39:21.880Z,71.33
2018-02-19T21:41:50.388Z,71.62
2018-02-19T21:44:18.832Z,71.82
2018-02-19T21:46:47.319Z,71.69
2018-02-19T21:49:15.802Z,71.76
2018-02-19T21:51:44.233Z,71.87
2018-02-19T21:54:12.680Z,72.17
2018-02-19T21:56:41.208Z,72.50
2018-02-19T21:59:09.643Z,72.49
2018-02-19T22:01:38.082Z,72.50
2018-02-19T22:04:06.583Z,72.24
2018-02-19T22:06:35.024Z,72.57
2018-02-19T22:09:03.578Z,72.81
2018-02-19T22:11:32.099Z,72.85
2018-02-19T22:14:00.575Z,73.20
2018-02-19T22:16:29.026Z,73.10
2018-02-19T22:18:57.537Z,73.24
2018-02-19T22:21:26.001Z,73.12
2018-02-19T22:23:54.443Z,73.25
2018-02-19T22:26:22.911Z,73.40
2018-02-19T22:28:51.352Z,73.42
2018-02-19T22:31:19.817Z,73.72
2018-02-19T22:33:48.297Z,73.49
2018-02-19T22:36:16.711Z,73.52
2018-02-19T22:38:45.143Z,73.55
2018-02-19T22:41:13.617Z,73.65
2018-02-19T22:43:42.067Z,73.61
2018-02-19T22:46:10.536Z,73.64
2018-02-19T22:48:39.194Z,73.80
2018-02-19T22:51:07.610Z,73.70
2018-02-19T22:53:36.058Z,73.98
2018-02-19T22:56:04.542Z,73.94
2018-02-19T22:58:32.982Z,73.94
2018-02-19T23:01:01.408Z,74.16
2018-02-19T23:03:29.900Z,73.84
2018-02-19T23:05:58.330Z,73.78
2018-02-19T23:08:26.775Z,73.80
2018-02-19T23:10:55.272Z,74.15
2018-02-19T23:13:23.704Z,74.45
2018-02-19T23:15:52.142Z,74.61
2018-02-19T23:18:20.637Z,74.35
2018-02-19T23:20:49.071Z,74.26
2018-02-19T23:23:17.506Z,74.83
2018-02-19T23:25:45.971Z,75.17
2018-02-19T23:28:14.421Z,75.87
2018-02-19T23:30:42.860Z,75.95
2018-02-19T23:33:11.324Z,75.78
2018-02-19T23:35:39.801Z,75.81
2018-02-19T23:38:08.239Z,75.58
2018-02-19T23:40:36.710Z,74.94
2018-02-19T23:43:05.146Z,74.58
2018-02-19T23:45:33.574Z,74.62
2018-02-19T23:48:02.135Z,74.55
2018-02-19T23:50:30.579Z,74.66
2018-02-19T23:52:59.022Z,74.45
2018-02-19T23:55:27.501Z,74.44
2018-02-19T23:57:55.943Z,74.55
